sensor_id;sensor_type;location;lat;lon;timestamp;P1;durP1;ratioP1;P2;durP2;ratioP2
76610;SDS011;65503;48.534;9.062;2024-02-15T11:20:08;4.22;;;1.80;;
76610;SDS011;65503;48.534;9.062;2024-02-15T11:22:37;5.82;;;2.00;;
76610;SDS011;65503;48.534;9.062;2024-02-15T11:25:05;7.32;;;1.85;;
76610;SDS011;65503;48.534;9.062;2024-02-15T11:27:38;6.68;;;1.95;;
76610;SDS011;65503;48.534;9.062;2024-02-15T11:30:06;3.85;;;1.50;;
76610;SDS011;65503;48.534;9.062;2024-02-15T11:32:39;5.63;;;1.45;;
76610;SDS011;65503;48.534;9.062;2024-02-15T11:35:12;3.67;;;1.60;;
76610;SDS011;65503;48.534;9.062;2024-02-15T11:40:25;3.58;;;1.50;;
76610;SDS011;65503;48.534;9.062;2024-02-15T11:42:56;2.72;;;1.50;;
76610;SDS011;65503;48.534;9.062;2024-02-15T11:54:06;2.78;;;1.45;;
76610;SDS011;65503;48.534;9.062;2024-02-15T11:59:15;2.58;;;1.27;;
76610;SDS011;65503;48.534;9.062;2024-02-15T12:01:59;5.05;;;1.65;;
76610;SDS011;65503;48.534;9.062;2024-02-15T12:04:44;4.70;;;1.60;;
76610;SDS011;65503;48.534;9.062;2024-02-15T12:07:29;3.05;;;1.33;;
76610;SDS011;65503;48.534;9.062;2024-02-15T12:10:18;4.20;;;1.73;;
76610;SDS011;65503;48.534;9.062;2024-02-15T12:13:04;2.45;;;1.17;;
76610;SDS011;65503;48.534;9.062;2024-02-15T12:16:22;4.53;;;1.38;;
76610;SDS011;65503;48.534;9.062;2024-02-15T12:19:00;5.38;;;1.30;;
76610;SDS011;65503;48.534;9.062;2024-02-15T12:21:30;2.58;;;1.10;;
76610;SDS011;65503;48.534;9.062;2024-02-15T12:23:56;3.88;;;1.40;;
76610;SDS011;65503;48.534;9.062;2024-02-15T12:26:24;2.75;;;1.35;;
76610;SDS011;65503;48.534;9.062;2024-02-15T12:28:53;3.58;;;1.40;;
76610;SDS011;65503;48.534;9.062;2024-02-15T12:31:24;2.22;;;1.13;;
76610;SDS011;65503;48.534;9.062;2024-02-15T12:33:59;4.43;;;1.10;;
76610;SDS011;65503;48.534;9.062;2024-02-15T12:36:28;2.53;;;1.10;;
76610;SDS011;65503;48.534;9.062;2024-02-15T12:39:05;2.50;;;1.20;;
76610;SDS011;65503;48.534;9.062;2024-02-15T12:41:41;4.63;;;1.50;;
76610;SDS011;65503;48.534;9.062;2024-02-15T12:44:16;3.35;;;1.50;;
76610;SDS011;65503;48.534;9.062;2024-02-15T12:46:44;3.88;;;1.60;;
76610;SDS011;65503;48.534;9.062;2024-02-15T12:49:24;3.60;;;1.30;;
76610;SDS011;65503;48.534;9.062;2024-02-15T12:52:32;2.50;;;1.30;;
76610;SDS011;65503;48.534;9.062;2024-02-15T12:55:14;3.85;;;1.38;;
76610;SDS011;65503;48.534;9.062;2024-02-15T12:57:46;3.33;;;1.50;;
76610;SDS011;65503;48.534;9.062;2024-02-15T13:00:17;3.33;;;1.33;;
76610;SDS011;65503;48.534;9.062;2024-02-15T13:02:58;5.85;;;1.35;;
76610;SDS011;65503;48.534;9.062;2024-02-15T13:05:26;2.95;;;1.20;;
76610;SDS011;65503;48.534;9.062;2024-02-15T13:07:54;5.93;;;1.50;;
76610;SDS011;65503;48.534;9.062;2024-02-15T13:10:31;36.17;;;5.68;;
76610;SDS011;65503;48.534;9.062;2024-02-15T13:12:58;16.60;;;2.05;;
76610;SDS011;65503;48.534;9.062;2024-02-15T13:15:24;3.00;;;1.10;;
76610;SDS011;65503;48.534;9.062;2024-02-15T13:18:00;2.95;;;1.27;;
76610;SDS011;65503;48.534;9.062;2024-02-15T13:20:27;14.93;;;1.65;;
76610;SDS011;65503;48.534;9.062;2024-02-15T13:22:59;5.90;;;1.40;;
76610;SDS011;65503;48.534;9.062;2024-02-15T13:25:29;3.85;;;1.40;;
76610;SDS011;65503;48.534;9.062;2024-02-15T13:27:56;6.65;;;1.52;;
76610;SDS011;65503;48.534;9.062;2024-02-15T13:30:23;4.60;;;1.45;;
76610;SDS011;65503;48.534;9.062;2024-02-15T13:32:53;2.63;;;1.25;;
76610;SDS011;65503;48.534;9.062;2024-02-15T13:35:27;2.30;;;1.00;;
76610;SDS011;65503;48.534;9.062;2024-02-15T13:37:54;2.90;;;1.10;;
76610;SDS011;65503;48.534;9.062;2024-02-15T13:40:24;17.13;;;2.47;;
76610;SDS011;65503;48.534;9.062;2024-02-15T13:43:00;10.70;;;1.85;;
76610;SDS011;65503;48.534;9.062;2024-02-15T13:45:31;7.82;;;1.55;;
76610;SDS011;65503;48.534;9.062;2024-02-15T13:48:05;3.33;;;1.30;;
76610;SDS011;65503;48.534;9.062;2024-02-15T13:50:36;4.80;;;1.70;;
76610;SDS011;65503;48.534;9.062;2024-02-15T13:53:05;4.75;;;1.30;;
76610;SDS011;65503;48.534;9.062;2024-02-15T13:55:33;3.28;;;1.20;;
76610;SDS011;65503;48.534;9.062;2024-02-15T13:58:00;3.47;;;1.45;;
76610;SDS011;65503;48.534;9.062;2024-02-15T14:00:28;6.43;;;1.88;;
76610;SDS011;65503;48.534;9.062;2024-02-15T14:03:01;6.53;;;1.58;;
76610;SDS011;65503;48.534;9.062;2024-02-15T14:05:29;5.20;;;1.40;;
76610;SDS011;65503;48.534;9.062;2024-02-15T14:07:57;4.78;;;1.60;;
76610;SDS011;65503;48.534;9.062;2024-02-15T14:10:27;2.78;;;1.40;;
76610;SDS011;65503;48.534;9.062;2024-02-15T14:12:55;4.78;;;1.42;;
76610;SDS011;65503;48.534;9.062;2024-02-15T14:15:25;5.88;;;2.00;;
76610;SDS011;65503;48.534;9.062;2024-02-15T14:17:52;3.28;;;1.23;;
76610;SDS011;65503;48.534;9.062;2024-02-15T14:20:19;6.32;;;2.58;;
76610;SDS011;65503;48.534;9.062;2024-02-15T14:22:48;4.00;;;1.20;;
76610;SDS011;65503;48.534;9.062;2024-02-15T14:25:16;2.78;;;1.20;;
76610;SDS011;65503;48.534;9.062;2024-02-15T14:27:42;4.20;;;1.15;;
76610;SDS011;65503;48.534;9.062;2024-02-15T14:30:09;9.63;;;1.63;;
76610;SDS011;65503;48.534;9.062;2024-02-15T14:32:55;3.85;;;1.25;;
76610;SDS011;65503;48.534;9.062;2024-02-15T14:35:35;6.00;;;1.50;;
76610;SDS011;65503;48.534;9.062;2024-02-15T14:38:03;4.53;;;1.55;;
76610;SDS011;65503;48.534;9.062;2024-02-15T14:40:39;3.45;;;1.50;;
76610;SDS011;65503;48.534;9.062;2024-02-15T14:43:11;4.47;;;1.42;;
76610;SDS011;65503;48.534;9.062;2024-02-15T14:45:44;3.45;;;1.40;;
76610;SDS011;65503;48.534;9.062;2024-02-15T14:48:11;4.65;;;1.40;;
76610;SDS011;65503;48.534;9.062;2024-02-15T14:50:39;3.00;;;1.30;;
76610;SDS011;65503;48.534;9.062;2024-02-15T14:53:08;3.55;;;1.58;;
76610;SDS011;65503;48.534;9.062;2024-02-15T14:55:38;3.17;;;1.13;;
76610;SDS011;65503;48.534;9.062;2024-02-15T14:58:06;2.17;;;1.30;;
76610;SDS011;65503;48.534;9.062;2024-02-15T15:00:39;7.10;;;1.30;;
76610;SDS011;65503;48.534;9.062;2024-02-15T15:03:08;1.83;;;1.10;;
76610;SDS011;65503;48.534;9.062;2024-02-15T15:05:35;3.55;;;1.35;;
76610;SDS011;65503;48.534;9.062;2024-02-15T15:08:20;3.03;;;1.20;;
76610;SDS011;65503;48.534;9.062;2024-02-15T15:11:06;6.32;;;1.45;;
76610;SDS011;65503;48.534;9.062;2024-02-15T15:13:51;3.67;;;1.30;;
76610;SDS011;65503;48.534;9.062;2024-02-15T15:18:47;6.15;;;1.30;;
76610;SDS011;65503;48.534;9.062;2024-02-15T15:21:18;4.13;;;1.20;;
76610;SDS011;65503;48.534;9.062;2024-02-15T15:23:45;4.32;;;1.20;;
76610;SDS011;65503;48.534;9.062;2024-02-15T15:26:17;2.28;;;1.15;;
76610;SDS011;65503;48.534;9.062;2024-02-15T15:28:45;3.15;;;1.30;;
76610;SDS011;65503;48.534;9.062;2024-02-15T15:31:12;2.38;;;1.30;;
76610;SDS011;65503;48.534;9.062;2024-02-15T15:33:39;3.50;;;1.60;;
76610;SDS011;65503;48.534;9.062;2024-02-15T15:36:06;4.25;;;1.67;;
76610;SDS011;65503;48.534;9.062;2024-02-15T15:38:32;5.18;;;1.80;;
76610;SDS011;65503;48.534;9.062;2024-02-15T15:40:59;4.13;;;1.50;;
76610;SDS011;65503;48.534;9.062;2024-02-15T15:43:26;4.38;;;1.90;;
76610;SDS011;65503;48.534;9.062;2024-02-15T15:45:53;4.55;;;1.75;;
76610;SDS011;65503;48.534;9.062;2024-02-15T15:48:21;4.35;;;1.58;;
76610;SDS011;65503;48.534;9.062;2024-02-15T15:50:48;3.97;;;1.23;;
76610;SDS011;65503;48.534;9.062;2024-02-15T15:55:42;4.57;;;1.65;;
76610;SDS011;65503;48.534;9.062;2024-02-15T15:58:08;4.32;;;1.45;;
76610;SDS011;65503;48.534;9.062;2024-02-15T16:00:35;5.03;;;1.35;;
76610;SDS011;65503;48.534;9.062;2024-02-15T16:03:03;2.67;;;1.25;;
76610;SDS011;65503;48.534;9.062;2024-02-15T16:05:31;5.20;;;1.83;;
76610;SDS011;65503;48.534;9.062;2024-02-15T16:07:58;3.30;;;1.58;;
76610;SDS011;65503;48.534;9.062;2024-02-15T16:10:24;3.60;;;1.55;;
76610;SDS011;65503;48.534;9.062;2024-02-15T16:12:55;5.20;;;1.45;;
76610;SDS011;65503;48.534;9.062;2024-02-15T16:15:27;4.25;;;1.42;;
76610;SDS011;65503;48.534;9.062;2024-02-15T16:17:54;4.10;;;1.80;;
76610;SDS011;65503;48.534;9.062;2024-02-15T16:20:21;3.50;;;1.50;;
76610;SDS011;65503;48.534;9.062;2024-02-15T16:22:49;4.18;;;1.38;;
76610;SDS011;65503;48.534;9.062;2024-02-15T16:25:16;3.70;;;1.60;;
76610;SDS011;65503;48.534;9.062;2024-02-15T16:27:44;3.95;;;1.48;;
76610;SDS011;65503;48.534;9.062;2024-02-15T16:30:13;4.40;;;1.65;;
76610;SDS011;65503;48.534;9.062;2024-02-15T16:32:41;5.53;;;1.83;;
76610;SDS011;65503;48.534;9.062;2024-02-15T16:35:08;6.05;;;2.00;;
76610;SDS011;65503;48.534;9.062;2024-02-15T16:37:43;5.57;;;2.10;;
76610;SDS011;65503;48.534;9.062;2024-02-15T16:40:11;7.10;;;2.42;;
76610;SDS011;65503;48.534;9.062;2024-02-15T16:42:43;6.80;;;2.55;;
76610;SDS011;65503;48.534;9.062;2024-02-15T16:45:13;5.90;;;2.47;;
76610;SDS011;65503;48.534;9.062;2024-02-15T16:47:43;6.72;;;2.80;;
76610;SDS011;65503;48.534;9.062;2024-02-15T16:50:16;8.80;;;3.28;;
76610;SDS011;65503;48.534;9.062;2024-02-15T16:52:43;9.55;;;4.20;;
76610;SDS011;65503;48.534;9.062;2024-02-15T16:55:10;9.32;;;3.45;;
76610;SDS011;65503;48.534;9.062;2024-02-15T16:57:37;6.63;;;2.88;;
76610;SDS011;65503;48.534;9.062;2024-02-15T17:00:07;8.63;;;2.67;;
76610;SDS011;65503;48.534;9.062;2024-02-15T17:02:35;6.88;;;2.78;;
76610;SDS011;65503;48.534;9.062;2024-02-15T17:05:05;9.23;;;3.50;;
76610;SDS011;65503;48.534;9.062;2024-02-15T17:07:34;8.63;;;3.42;;
76610;SDS011;65503;48.534;9.062;2024-02-15T17:10:00;8.10;;;3.05;;
76610;SDS011;65503;48.534;9.062;2024-02-15T17:12:27;7.63;;;2.95;;
76610;SDS011;65503;48.534;9.062;2024-02-15T17:14:54;8.55;;;2.70;;
76610;SDS011;65503;48.534;9.062;2024-02-15T17:17:22;6.95;;;3.05;;
76610;SDS011;65503;48.534;9.062;2024-02-15T17:19:50;6.90;;;3.15;;
76610;SDS011;65503;48.534;9.062;2024-02-15T17:22:18;6.75;;;2.88;;
76610;SDS011;65503;48.534;9.062;2024-02-15T17:24:45;7.32;;;2.67;;
76610;SDS011;65503;48.534;9.062;2024-02-15T17:27:11;9.70;;;2.83;;
76610;SDS011;65503;48.534;9.062;2024-02-15T17:29:38;8.52;;;3.00;;
76610;SDS011;65503;48.534;9.062;2024-02-15T17:32:06;7.05;;;3.30;;
76610;SDS011;65503;48.534;9.062;2024-02-15T17:34:32;6.35;;;2.83;;
76610;SDS011;65503;48.534;9.062;2024-02-15T17:36:59;9.45;;;3.58;;
76610;SDS011;65503;48.534;9.062;2024-02-15T17:39:26;8.73;;;3.97;;
76610;SDS011;65503;48.534;9.062;2024-02-15T17:41:52;11.70;;;5.15;;
76610;SDS011;65503;48.534;9.062;2024-02-15T17:44:20;12.23;;;6.03;;
76610;SDS011;65503;48.534;9.062;2024-02-15T17:46:46;12.40;;;6.78;;
76610;SDS011;65503;48.534;9.062;2024-02-15T17:49:13;11.50;;;5.82;;
76610;SDS011;65503;48.534;9.062;2024-02-15T17:51:39;13.20;;;5.32;;
76610;SDS011;65503;48.534;9.062;2024-02-15T17:54:09;11.77;;;5.47;;
76610;SDS011;65503;48.534;9.062;2024-02-15T17:56:37;10.57;;;5.80;;
76610;SDS011;65503;48.534;9.062;2024-02-15T17:59:03;12.95;;;5.28;;
76610;SDS011;65503;48.534;9.062;2024-02-15T18:01:30;10.25;;;4.15;;
76610;SDS011;65503;48.534;9.062;2024-02-15T18:04:00;9.90;;;3.88;;
76610;SDS011;65503;48.534;9.062;2024-02-15T18:06:27;9.88;;;4.10;;
76610;SDS011;65503;48.534;9.062;2024-02-15T18:08:55;8.35;;;3.67;;
76610;SDS011;65503;48.534;9.062;2024-02-15T18:11:21;9.25;;;3.50;;
76610;SDS011;65503;48.534;9.062;2024-02-15T18:13:48;8.32;;;3.55;;
76610;SDS011;65503;48.534;9.062;2024-02-15T18:16:15;7.47;;;3.30;;
76610;SDS011;65503;48.534;9.062;2024-02-15T18:21:09;7.03;;;2.95;;
76610;SDS011;65503;48.534;9.062;2024-02-15T18:23:37;7.63;;;3.33;;
76610;SDS011;65503;48.534;9.062;2024-02-15T18:26:08;6.95;;;3.45;;
76610;SDS011;65503;48.534;9.062;2024-02-15T18:28:35;7.15;;;2.85;;
76610;SDS011;65503;48.534;9.062;2024-02-15T18:31:01;7.38;;;2.83;;
76610;SDS011;65503;48.534;9.062;2024-02-15T18:33:28;5.88;;;2.60;;
76610;SDS011;65503;48.534;9.062;2024-02-15T18:35:56;5.00;;;2.30;;
76610;SDS011;65503;48.534;9.062;2024-02-15T18:38:24;5.10;;;2.05;;
76610;SDS011;65503;48.534;9.062;2024-02-15T18:40:53;5.22;;;2.10;;
76610;SDS011;65503;48.534;9.062;2024-02-15T18:43:24;6.78;;;2.30;;
76610;SDS011;65503;48.534;9.062;2024-02-15T18:45:51;4.88;;;2.47;;
76610;SDS011;65503;48.534;9.062;2024-02-15T18:48:19;6.80;;;2.55;;
76610;SDS011;65503;48.534;9.062;2024-02-15T18:50:46;5.97;;;2.53;;
76610;SDS011;65503;48.534;9.062;2024-02-15T18:53:13;6.18;;;2.25;;
76610;SDS011;65503;48.534;9.062;2024-02-15T18:55:42;6.55;;;3.15;;
76610;SDS011;65503;48.534;9.062;2024-02-15T18:58:09;10.75;;;3.90;;
76610;SDS011;65503;48.534;9.062;2024-02-15T19:00:35;7.60;;;2.90;;
76610;SDS011;65503;48.534;9.062;2024-02-15T19:03:21;6.90;;;3.50;;
76610;SDS011;65503;48.534;9.062;2024-02-15T19:05:48;7.63;;;3.65;;
76610;SDS011;65503;48.534;9.062;2024-02-15T19:08:15;8.23;;;3.28;;
76610;SDS011;65503;48.534;9.062;2024-02-15T19:10:42;10.30;;;4.75;;
76610;SDS011;65503;48.534;9.062;2024-02-15T19:13:09;10.10;;;4.70;;
76610;SDS011;65503;48.534;9.062;2024-02-15T19:15:36;7.30;;;3.58;;
76610;SDS011;65503;48.534;9.062;2024-02-15T19:18:02;9.40;;;3.70;;
76610;SDS011;65503;48.534;9.062;2024-02-15T19:20:32;9.18;;;3.83;;
76610;SDS011;65503;48.534;9.062;2024-02-15T19:22:59;7.45;;;3.30;;
76610;SDS011;65503;48.534;9.062;2024-02-15T19:25:25;7.53;;;3.40;;
76610;SDS011;65503;48.534;9.062;2024-02-15T19:27:52;8.25;;;4.82;;
76610;SDS011;65503;48.534;9.062;2024-02-15T19:30:19;16.35;;;7.60;;
76610;SDS011;65503;48.534;9.062;2024-02-15T19:32:46;9.82;;;4.45;;
76610;SDS011;65503;48.534;9.062;2024-02-15T19:35:16;7.75;;;3.70;;
76610;SDS011;65503;48.534;9.062;2024-02-15T19:37:43;8.15;;;3.70;;
76610;SDS011;65503;48.534;9.062;2024-02-15T19:40:13;10.43;;;3.97;;
76610;SDS011;65503;48.534;9.062;2024-02-15T19:42:45;8.60;;;3.58;;
76610;SDS011;65503;48.534;9.062;2024-02-15T19:45:15;8.45;;;3.55;;
76610;SDS011;65503;48.534;9.062;2024-02-15T19:47:45;6.65;;;3.78;;
76610;SDS011;65503;48.534;9.062;2024-02-15T19:50:13;10.65;;;4.50;;
76610;SDS011;65503;48.534;9.062;2024-02-15T19:52:42;9.80;;;4.68;;
76610;SDS011;65503;48.534;9.062;2024-02-15T19:55:09;10.95;;;4.97;;
76610;SDS011;65503;48.534;9.062;2024-02-15T19:57:36;9.63;;;5.10;;
76610;SDS011;65503;48.534;9.062;2024-02-15T20:00:03;8.57;;;3.63;;
76610;SDS011;65503;48.534;9.062;2024-02-15T20:02:33;8.45;;;4.18;;
76610;SDS011;65503;48.534;9.062;2024-02-15T20:05:01;7.28;;;3.58;;
76610;SDS011;65503;48.534;9.062;2024-02-15T20:07:30;7.78;;;3.38;;
76610;SDS011;65503;48.534;9.062;2024-02-15T20:09:56;7.32;;;3.17;;
76610;SDS011;65503;48.534;9.062;2024-02-15T20:12:23;9.32;;;3.53;;
76610;SDS011;65503;48.534;9.062;2024-02-15T20:14:50;8.27;;;3.17;;
76610;SDS011;65503;48.534;9.062;2024-02-15T20:17:17;5.88;;;3.22;;
76610;SDS011;65503;48.534;9.062;2024-02-15T20:19:43;11.20;;;4.60;;
76610;SDS011;65503;48.534;9.062;2024-02-15T20:22:10;9.38;;;4.00;;
76610;SDS011;65503;48.534;9.062;2024-02-15T20:24:36;11.13;;;4.50;;
76610;SDS011;65503;48.534;9.062;2024-02-15T20:27:05;9.30;;;3.90;;
76610;SDS011;65503;48.534;9.062;2024-02-15T20:29:32;10.80;;;3.83;;
76610;SDS011;65503;48.534;9.062;2024-02-15T20:32:00;9.00;;;4.78;;
76610;SDS011;65503;48.534;9.062;2024-02-15T20:34:26;12.15;;;6.35;;
76610;SDS011;65503;48.534;9.062;2024-02-15T20:36:53;12.18;;;6.03;;
76610;SDS011;65503;48.534;9.062;2024-02-15T20:39:20;12.18;;;5.95;;
76610;SDS011;65503;48.534;9.062;2024-02-15T20:41:47;9.95;;;5.93;;
76610;SDS011;65503;48.534;9.062;2024-02-15T20:44:15;12.93;;;6.32;;
76610;SDS011;65503;48.534;9.062;2024-02-15T20:46:42;12.10;;;7.15;;
76610;SDS011;65503;48.534;9.062;2024-02-15T20:49:09;17.25;;;7.28;;
76610;SDS011;65503;48.534;9.062;2024-02-15T20:51:39;14.20;;;6.68;;
76610;SDS011;65503;48.534;9.062;2024-02-15T20:54:06;11.68;;;6.80;;
76610;SDS011;65503;48.534;9.062;2024-02-15T20:56:32;13.57;;;6.97;;
76610;SDS011;65503;48.534;9.062;2024-02-15T20:59:02;15.10;;;7.32;;
76610;SDS011;65503;48.534;9.062;2024-02-15T21:01:30;13.43;;;6.90;;
76610;SDS011;65503;48.534;9.062;2024-02-15T21:03:59;11.75;;;6.30;;
76610;SDS011;65503;48.534;9.062;2024-02-15T21:06:27;11.52;;;5.55;;
76610;SDS011;65503;48.534;9.062;2024-02-15T21:08:58;11.05;;;5.65;;
76610;SDS011;65503;48.534;9.062;2024-02-15T21:11:25;10.27;;;4.93;;
76610;SDS011;65503;48.534;9.062;2024-02-15T21:13:51;12.90;;;4.97;;
76610;SDS011;65503;48.534;9.062;2024-02-15T21:16:19;9.63;;;5.25;;
76610;SDS011;65503;48.534;9.062;2024-02-15T21:18:47;10.13;;;5.43;;
76610;SDS011;65503;48.534;9.062;2024-02-15T21:21:16;8.75;;;5.03;;
76610;SDS011;65503;48.534;9.062;2024-02-15T21:23:43;9.70;;;4.90;;
76610;SDS011;65503;48.534;9.062;2024-02-15T21:26:10;9.52;;;4.53;;
76610;SDS011;65503;48.534;9.062;2024-02-15T21:28:37;9.95;;;4.70;;
76610;SDS011;65503;48.534;9.062;2024-02-15T21:31:05;8.27;;;4.47;;
76610;SDS011;65503;48.534;9.062;2024-02-15T21:33:44;9.52;;;4.65;;
76610;SDS011;65503;48.534;9.062;2024-02-15T21:36:12;8.85;;;4.28;;
76610;SDS011;65503;48.534;9.062;2024-02-15T21:38:40;7.43;;;4.03;;
76610;SDS011;65503;48.534;9.062;2024-02-15T21:41:09;8.45;;;4.30;;
76610;SDS011;65503;48.534;9.062;2024-02-15T21:43:37;8.85;;;4.38;;
76610;SDS011;65503;48.534;9.062;2024-02-15T21:46:03;8.27;;;4.20;;
76610;SDS011;65503;48.534;9.062;2024-02-15T21:50:59;9.52;;;4.60;;
76610;SDS011;65503;48.534;9.062;2024-02-15T21:53:26;7.80;;;4.10;;
76610;SDS011;65503;48.534;9.062;2024-02-15T21:55:53;8.68;;;4.32;;
76610;SDS011;65503;48.534;9.062;2024-02-15T21:58:19;8.93;;;4.45;;
76610;SDS011;65503;48.534;9.062;2024-02-15T22:00:46;8.95;;;4.10;;
76610;SDS011;65503;48.534;9.062;2024-02-15T22:03:13;8.57;;;4.68;;
76610;SDS011;65503;48.534;9.062;2024-02-15T22:05:40;9.30;;;4.30;;
76610;SDS011;65503;48.534;9.062;2024-02-15T22:08:07;8.98;;;4.03;;
76610;SDS011;65503;48.534;9.062;2024-02-15T22:10:35;9.32;;;4.28;;
76610;SDS011;65503;48.534;9.062;2024-02-15T22:13:02;11.68;;;4.88;;
76610;SDS011;65503;48.534;9.062;2024-02-15T22:15:29;7.90;;;4.13;;
76610;SDS011;65503;48.534;9.062;2024-02-15T22:17:59;10.05;;;5.38;;
76610;SDS011;65503;48.534;9.062;2024-02-15T22:20:27;8.10;;;4.50;;
76610;SDS011;65503;48.534;9.062;2024-02-15T22:22:54;10.13;;;4.60;;
76610;SDS011;65503;48.534;9.062;2024-02-15T22:25:21;9.80;;;5.30;;
76610;SDS011;65503;48.534;9.062;2024-02-15T22:27:48;7.57;;;4.15;;
76610;SDS011;65503;48.534;9.062;2024-02-15T22:30:16;9.65;;;5.15;;
76610;SDS011;65503;48.534;9.062;2024-02-15T22:32:44;9.68;;;4.95;;
76610;SDS011;65503;48.534;9.062;2024-02-15T22:35:11;9.52;;;5.05;;
76610;SDS011;65503;48.534;9.062;2024-02-15T22:37:38;9.90;;;5.28;;
76610;SDS011;65503;48.534;9.062;2024-02-15T22:40:05;9.70;;;5.47;;
76610;SDS011;65503;48.534;9.062;2024-02-15T22:42:32;9.07;;;5.00;;
76610;SDS011;65503;48.534;9.062;2024-02-15T22:44:58;9.02;;;4.93;;
76610;SDS011;65503;48.534;9.062;2024-02-15T22:47:25;10.02;;;5.40;;
76610;SDS011;65503;48.534;9.062;2024-02-15T22:49:53;9.45;;;5.22;;
76610;SDS011;65503;48.534;9.062;2024-02-15T22:52:20;10.80;;;5.35;;
76610;SDS011;65503;48.534;9.062;2024-02-15T22:54:47;12.40;;;5.50;;
76610;SDS011;65503;48.534;9.062;2024-02-15T22:57:15;21.40;;;6.28;;
76610;SDS011;65503;48.534;9.062;2024-02-15T22:59:43;9.60;;;5.57;;
76610;SDS011;65503;48.534;9.062;2024-02-15T23:02:12;13.55;;;6.13;;
76610;SDS011;65503;48.534;9.062;2024-02-15T23:04:39;12.38;;;5.93;;
76610;SDS011;65503;48.534;9.062;2024-02-15T23:07:05;11.40;;;5.80;;
76610;SDS011;65503;48.534;9.062;2024-02-15T23:09:35;10.10;;;5.60;;
76610;SDS011;65503;48.534;9.062;2024-02-15T23:12:02;12.07;;;6.25;;
76610;SDS011;65503;48.534;9.062;2024-02-15T23:14:30;13.20;;;6.50;;
76610;SDS011;65503;48.534;9.062;2024-02-15T23:16:56;12.85;;;6.57;;
76610;SDS011;65503;48.534;9.062;2024-02-15T23:19:23;11.75;;;5.93;;
76610;SDS011;65503;48.534;9.062;2024-02-15T23:21:50;10.52;;;5.78;;
76610;SDS011;65503;48.534;9.062;2024-02-15T23:24:17;11.88;;;5.68;;
76610;SDS011;65503;48.534;9.062;2024-02-15T23:26:44;10.25;;;5.90;;
76610;SDS011;65503;48.534;9.062;2024-02-15T23:29:12;9.95;;;5.53;;
76610;SDS011;65503;48.534;9.062;2024-02-15T23:31:40;10.80;;;5.50;;
76610;SDS011;65503;48.534;9.062;2024-02-15T23:34:07;11.43;;;5.15;;
76610;SDS011;65503;48.534;9.062;2024-02-15T23:36:34;8.30;;;5.32;;
76610;SDS011;65503;48.534;9.062;2024-02-15T23:39:19;15.52;;;6.82;;
76610;SDS011;65503;48.534;9.062;2024-02-15T23:42:02;12.18;;;6.47;;
76610;SDS011;65503;48.534;9.062;2024-02-15T23:44:31;18.50;;;7.20;;
76610;SDS011;65503;48.534;9.062;2024-02-15T23:47:00;10.40;;;5.55;;
76610;SDS011;65503;48.534;9.062;2024-02-15T23:49:26;11.07;;;5.60;;
76610;SDS011;65503;48.534;9.062;2024-02-15T23:51:53;13.65;;;6.38;;
76610;SDS011;65503;48.534;9.062;2024-02-15T23:54:21;10.55;;;5.57;;
76610;SDS011;65503;48.534;9.062;2024-02-15T23:56:47;11.38;;;5.72;;
76610;SDS011;65503;48.534;9.062;2024-02-15T23:59:14;13.45;;;6.32;;
